Архив погоды в Большом Шантаре

Метеограмма Большой Шантар
Среда, 16 Августа
Время местн. Темп Ветер Видим Явления Облачность нижн/средн/верх Атм. давл. Влжн Точка росы ВНГО R Сост. почвы Tg s
Напр Скр Прв ур.ст ур.м изм
22:00 +13.2° В 1 - 20 км небо без изменений {морось} облачно 764 765 +0.2 96% +12.6° 600 м - - - -
19:00 +13.8° Ю 1 - 20 км небо без изменений {морось} облачно 764 765 -0.2 96% +13.1° 600 м 0.6 - - -
16:00 +14.2° Ю-З 1 - 20 км небо без изменений {ливневые осадки, морось} облачно 764 765 -0.5 94% +13.3° 600 м - - - -
13:00 +14.5° Ю 3 - 10 км слабая непрерывная морось {ливневые осадки} облачно 765 766 -0.2 96% +13.8° 600 м - - - -
10:00 +15.1° Ю 2 - 20 км - преимущественно облачно 765 766 +0.1 88% +13.1° 1 км - - - -
07:00 +14.5° С,С-В 3 - 20 км - облачно 765 766 +0.1 94% +13.5° 600 м 0 Влажная (без луж) +15° -
04:00 +14.3° С 2 - 20 км небо без изменений {морось} облачно 765 765 +0.1 96% +13.6° 600 м - - - -
01:00 +14.5° С,С-В 2 - 20 км небо без изменений {морось} облачно 765 765 -0.2 93% +13.4° 600 м - - - -
Вторник, 15 Августа
Время местн. Темп Ветер Видим Явления Облачность нижн/средн/верх Атм. давл. Влжн Точка росы ВНГО R Сост. почвы Tg s
Напр Скр Прв ур.ст ур.м изм
22:00 +14.7° С,С-В 4 - 10 км слабая морось с перерывами облачно 765 766 +0.5 94% +13.7° 600 м - - - -
19:00 +15.7° С,С-В 3 - 20 км слабая морось с перерывами облачно 764 765 +0.2 88% +13.7° 1 км 0 - - -
16:00 +16.4° С,С-В 5 - 20 км слабая непрерывная морось облачно 764 765 +0.1 87% +14.2° 1 км - - - -
13:00 +16.4° С,С-В 5 11 20 км слабая непрерывная морось облачно 764 765 +0.5 88% +14.4° 1 км - - - -
10:00 +16.5° С,С-В 5 - 20 км слабая непрерывная морось облачно 764 765 +0.2 89% +14.6° 1 км - - - -
07:00 +16.3° С,С-В 4 - 20 км - облачно 763 764 +1.1 89% +14.4° 1 км 0 Сухая (без трещин) - -
04:00 +16.6° С,С-В 4 - 20 км - облачно 762 763 +0.9 90% +14.9° 1 км - - - -
01:00 +17.7° С,С-В 4 - 20 км - облачно с прояснениями 761 762 +0.6 88% +15.7° 1 км - - - -
Понедельник, 14 Августа
Время местн. Темп Ветер Видим Явления Облачность нижн/средн/верх Атм. давл. Влжн Точка росы ВНГО R Сост. почвы Tg s
Напр Скр Прв ур.ст ур.м изм
22:00 +18.3° В,С-В 3 - более 50 км - переменная облачность 761 762 +1.4 86% +15.9° 1 км - - - -
19:00 +25.3° С-В 3 - 20 км - переменная облачность 759 760 +0.5 51% +14.4° более 2.5 км 0 - - -
16:00 +19.9° Ю 2 - 20 км - ясно 759 760 +0.8 73% +14.9° более 2.5 км - - - -
13:00 +19° Ю-З 2 - 20 км - ясно 758 759 +0.1 77% +14.8° более 2.5 км - - - -
10:00 +20.3° Ю-З 1 - 20 км небо без изменений {туман} ясно 758 759 +0.2 80% +16.7° более 2.5 км - - - -
07:00 +15.2° С 3 - 20 км небо без изменений {туман} ясно 758 759 +0.2 97% +14.8° более 2.5 км 0 Сухая (без трещин) +10° -
04:00 +12.3° С,С-В 2 - 200 м туман, небо видно ясно 758 758 -0.1 97% +11.9° более 2.5 км - - - -
01:00 +14.6° С,С-В 2 - 200 м туман, небо видно ясно 758 758 +0.1 97% +14.1° более 2.5 км - - - -
Воскресенье, 13 Августа
Время местн. Темп Ветер Видим Явления Облачность нижн/средн/верх Атм. давл. Влжн Точка росы ВНГО R Сост. почвы Tg s
Напр Скр Прв ур.ст ур.м изм
22:00 +17.1° С-В 2 - 20 км - переменная облачность 758 759 -0.1 96% +16.4° более 2.5 км - - - -
19:00 +20° Ю,Ю-З 1 - 20 км - облачно с прояснениями 758 758 -0.5 83% +17° более 2.5 км 0 - - -